Time;durP1;ratioP1;P1;durP2;ratioP2;P2;SDS_P1;SDS_P2;PMS_P1;PMS_P2;Temp;Humidity;BMP_temperature;BMP_pressure;BME280_temperature;BME280_humidity;BME280_pressure;Samples;Min_cycle;Max_cycle;Signal;HPM_P1;HPM_P2
2023/03/26 00:01:36;;;;;;;4.17;3.77;;;;;;;7.72;98.34;99196.94;5001722;28;20219;-81
2023/03/26 00:04:03;;;;;;;4.90;3.80;;;;;;;7.79;98.02;99207.16;5002076;28;20234;-81
2023/03/26 00:06:33;;;;;;;6.03;3.87;;;;;;;7.73;97.63;99206.44;5002436;28;20260;-82
2023/03/26 00:09:00;;;;;;;7.13;4.07;;;;;;;7.73;97.65;99208.16;5002839;28;20208;-82
2023/03/26 00:11:29;;;;;;;4.93;4.40;;;;;;;7.74;97.59;99199.50;5003083;28;20223;-82
2023/03/26 00:13:56;;;;;;;6.73;4.10;;;;;;;7.74;97.58;99205.53;5002446;28;20200;-82
2023/03/26 00:16:24;;;;;;;5.33;3.60;;;;;;;7.61;98.25;99221.50;5000265;28;20249;-79
2023/03/26 00:18:52;;;;;;;5.20;4.30;;;;;;;7.60;100.00;99194.69;5001119;28;20246;-79
2023/03/26 00:21:20;;;;;;;5.60;4.43;;;;;;;7.55;100.00;99162.78;5001214;28;20251;-81
2023/03/26 00:23:48;;;;;;;6.73;4.63;;;;;;;7.61;100.00;99146.19;4998279;28;20627;-81
2023/03/26 00:26:16;;;;;;;8.03;4.70;;;;;;;7.46;100.00;99143.13;5000263;28;20223;-80
2023/03/26 00:28:43;;;;;;;6.13;4.67;;;;;;;7.46;100.00;99127.53;5001146;28;20690;-81
2023/03/26 00:31:12;;;;;;;5.70;4.70;;;;;;;7.43;100.00;99127.59;5001391;28;20740;-80
2023/03/26 00:33:40;;;;;;;4.70;4.20;;;;;;;7.31;100.00;99130.53;5001115;28;20211;-81
2023/03/26 00:36:10;;;;;;;5.27;4.80;;;;;;;7.40;100.00;99124.28;4999812;28;20210;-80
2023/03/26 00:38:38;;;;;;;5.47;4.37;;;;;;;7.54;100.00;99122.13;4999535;28;20681;-81
2023/03/26 00:41:06;;;;;;;5.27;4.23;;;;;;;7.40;100.00;99150.22;4999215;28;20718;-81
2023/03/26 00:43:35;;;;;;;5.50;4.40;;;;;;;7.54;100.00;99156.75;5000153;28;20208;-80
2023/03/26 00:46:01;;;;;;;5.57;4.07;;;;;;;7.50;100.00;99168.09;4999850;28;20755;-80
2023/03/26 00:48:29;;;;;;;5.87;4.40;;;;;;;7.52;100.00;99178.44;5000859;28;20327;-80
2023/03/26 00:50:56;;;;;;;5.90;4.83;;;;;;;7.59;100.00;99181.72;5000729;28;20234;-82
2023/03/26 00:53:24;;;;;;;3.90;3.33;;;;;;;7.54;99.97;99215.63;5000563;28;20204;-79
2023/03/26 00:55:50;;;;;;;4.50;4.10;;;;;;;7.51;99.31;99228.66;5001625;28;20274;-81
2023/03/26 00:58:16;;;;;;;4.90;3.57;;;;;;;7.63;99.20;99233.56;5001895;28;20228;-79
2023/03/26 01:00:49;;;;;;;8.10;3.93;;;;;;;7.70;98.77;99257.63;4999955;28;20215;-80
2023/03/26 01:03:17;;;;;;;4.63;3.20;;;;;;;7.76;98.13;99273.03;4999387;28;20620;-80
2023/03/26 01:05:51;;;;;;;6.70;4.33;;;;;;;7.77;97.75;99277.34;5000351;28;20267;-81
2023/03/26 01:08:25;;;;;;;5.57;3.90;;;;;;;7.80;97.70;99281.59;4999330;28;20203;-81
2023/03/26 01:11:01;;;;;;;5.37;3.47;;;;;;;7.76;97.28;99304.22;4999651;28;20677;-79
2023/03/26 01:13:30;;;;;;;6.07;3.70;;;;;;;7.66;97.36;99311.38;5000237;28;20211;-79
2023/03/26 01:15:56;;;;;;;4.17;3.63;;;;;;;7.66;96.94;99319.16;5000690;28;20625;-80
2023/03/26 01:18:25;;;;;;;3.77;3.33;;;;;;;7.60;97.10;99323.69;5000116;28;20264;-79
2023/03/26 01:20:57;;;;;;;4.80;3.63;;;;;;;7.60;97.10;99324.53;4999865;28;21536;-81
2023/03/26 01:23:37;;;;;;;4.63;3.17;;;;;;;7.54;97.42;99328.13;5000877;28;20213;-82
2023/03/26 01:26:12;;;;;;;5.63;3.80;;;;;;;7.52;98.12;99322.09;5000476;28;20207;-82
2023/03/26 01:28:40;;;;;;;5.30;3.30;;;;;;;7.48;96.43;99324.81;5000738;28;20582;-81
2023/03/26 01:31:12;;;;;;;5.90;3.47;;;;;;;7.48;97.51;99333.47;4999996;28;20234;-81
2023/03/26 01:33:46;;;;;;;4.00;2.60;;;;;;;7.46;96.57;99343.03;5000239;28;20208;-80
2023/03/26 01:36:20;;;;;;;3.10;2.80;;;;;;;7.40;96.40;99360.50;5000259;28;20211;-81
2023/03/26 01:38:54;;;;;;;5.80;2.77;;;;;;;7.38;97.21;99342.38;5000220;28;20230;-82
2023/03/26 01:41:30;;;;;;;3.03;2.37;;;;;;;7.46;96.52;99347.38;4999325;28;20278;-82
2023/03/26 01:44:03;;;;;;;3.73;2.13;;;;;;;7.50;95.72;99357.66;4998912;28;20230;-80
2023/03/26 01:46:35;;;;;;;5.00;2.70;;;;;;;7.43;96.11;99344.84;5000195;28;20247;-81
2023/03/26 01:49:03;;;;;;;4.80;2.57;;;;;;;7.32;94.86;99364.13;4999768;28;20207;-81
2023/03/26 01:51:33;;;;;;;5.20;2.73;;;;;;;7.32;95.88;99371.91;4999651;28;20227;-81
2023/03/26 01:54:00;;;;;;;3.70;2.43;;;;;;;7.29;96.01;99363.34;4999535;28;20687;-81
2023/03/26 01:56:35;;;;;;;4.40;2.17;;;;;;;7.40;95.35;99350.13;4999792;28;20205;-79
2023/03/26 01:59:11;;;;;;;3.53;2.30;;;;;;;7.36;94.73;99378.75;4998697;28;20632;-81
2023/03/26 02:01:44;;;;;;;3.97;2.37;;;;;;;7.34;94.25;99383.13;4999270;28;20599;-82
2023/03/26 02:04:20;;;;;;;2.70;2.03;;;;;;;7.31;92.63;99403.09;4999613;28;20207;-81
2023/03/26 02:06:52;;;;;;;1.97;1.80;;;;;;;7.14;92.28;99413.84;5000232;28;20242;-81
2023/03/26 02:09:24;;;;;;;1.87;1.43;;;;;;;7.20;92.06;99425.84;4998695;28;20207;-80
2023/03/26 02:11:53;;;;;;;3.60;1.67;;;;;;;7.16;91.28;99440.63;4999517;28;20248;-81
2023/03/26 02:14:20;;;;;;;1.90;1.70;;;;;;;7.10;91.54;99441.59;4999425;28;20211;-81
2023/03/26 02:16:46;;;;;;;2.80;1.73;;;;;;;7.24;92.29;99436.13;4998862;28;20211;-82
2023/03/26 02:19:14;;;;;;;2.33;1.97;;;;;;;7.26;92.79;99433.50;4998636;28;20266;-81
2023/03/26 02:21:41;;;;;;;5.00;2.30;;;;;;;7.26;92.63;99423.13;4998665;28;20241;-80
2023/03/26 02:24:08;;;;;;;4.37;2.47;;;;;;;7.26;93.22;99413.59;4998823;28;20246;-82
2023/03/26 02:26:36;;;;;;;2.40;2.20;;;;;;;7.28;92.98;99408.38;4998953;28;20214;-80
2023/03/26 02:29:04;;;;;;;4.10;2.50;;;;;;;7.30;93.82;99404.00;4999467;28;20211;-80
2023/03/26 02:31:30;;;;;;;3.83;2.63;;;;;;;7.26;93.87;99390.22;4999086;28;20784;-81
2023/03/26 02:33:57;;;;;;;2.87;2.43;;;;;;;7.16;94.57;99389.56;4998322;28;20262;-81
2023/03/26 02:36:26;;;;;;;4.43;2.73;;;;;;;7.15;94.15;99387.88;4999756;28;20554;-83
2023/03/26 02:38:52;;;;;;;3.80;2.60;;;;;;;7.15;94.82;99374.91;4999209;28;20278;-82
2023/03/26 02:41:19;;;;;;;4.87;2.40;;;;;;;7.14;93.92;99364.56;4999824;28;20227;-82
2023/03/26 02:43:45;;;;;;;5.43;2.77;;;;;;;7.16;94.33;99368.81;4998975;28;20246;-80
2023/03/26 02:46:13;;;;;;;3.00;2.07;;;;;;;7.11;93.46;99365.44;5000234;28;20208;-83
2023/03/26 02:48:40;;;;;;;2.67;1.90;;;;;;;7.17;93.63;99369.66;5000212;28;20675;-80
2023/03/26 02:51:06;;;;;;;4.40;2.00;;;;;;;7.18;93.99;99381.75;4999135;28;20234;-80
2023/03/26 02:53:36;;;;;;;3.47;2.17;;;;;;;7.00;94.66;99367.44;4998708;28;20335;-83
2023/03/26 02:56:03;;;;;;;2.87;2.10;;;;;;;6.97;95.38;99352.78;4999510;28;20207;-80
2023/03/26 02:58:29;;;;;;;4.57;2.17;;;;;;;6.96;95.44;99338.13;4999258;28;20281;-81
2023/03/26 03:00:56;;;;;;;5.70;2.90;;;;;;;6.98;95.93;99322.53;4998761;28;20227;-82
2023/03/26 03:03:25;;;;;;;5.53;2.53;;;;;;;6.96;96.07;99313.94;4999855;28;20906;-82
2023/03/26 03:05:52;;;;;;;4.90;2.80;;;;;;;7.03;96.57;99302.50;5000337;28;20211;-82
2023/03/26 03:08:18;;;;;;;10.97;2.87;;;;;;;7.05;97.16;99290.34;4999846;28;20207;-82
2023/03/26 03:10:55;;;;;;;5.63;3.20;;;;;;;7.14;96.74;99297.94;5000098;28;20219;-82
2023/03/26 03:13:22;;;;;;;3.93;3.60;;;;;;;7.07;96.69;99291.16;4999138;28;20214;-83
2023/03/26 03:15:48;;;;;;;5.43;2.90;;;;;;;6.94;97.17;99290.59;4999213;28;20208;-83
2023/03/26 03:18:14;;;;;;;4.03;2.63;;;;;;;6.94;97.78;99272.44;4999008;28;20224;-83
2023/03/26 03:20:42;;;;;;;4.20;3.23;;;;;;;6.83;97.54;99271.81;4999345;28;20209;-82
2023/03/26 03:23:08;;;;;;;4.27;3.10;;;;;;;6.79;98.30;99271.94;5000326;28;20219;-83
2023/03/26 03:25:35;;;;;;;5.30;2.93;;;;;;;6.86;97.70;99264.00;4999582;28;20212;-82
2023/03/26 03:28:01;;;;;;;3.30;3.00;;;;;;;6.95;97.31;99276.72;4999653;28;20215;-83
2023/03/26 03:30:28;;;;;;;9.50;2.77;;;;;;;6.85;97.21;99290.81;4999403;28;20322;-83
2023/03/26 03:32:57;;;;;;;4.50;3.23;;;;;;;6.89;96.98;99281.22;5003358;28;20784;-83
2023/03/26 03:35:23;;;;;;;4.43;2.97;;;;;;;6.87;96.56;99290.78;5003147;28;20207;-83
2023/03/26 03:37:51;;;;;;;3.63;2.47;;;;;;;6.93;95.99;99295.81;5003181;28;20223;-83
2023/03/26 03:40:18;;;;;;;4.07;3.10;;;;;;;6.97;96.24;99295.72;5003543;28;20211;-83
2023/03/26 03:42:45;;;;;;;4.67;2.40;;;;;;;6.96;95.33;99313.94;5002790;28;20251;-81
2023/03/26 03:45:12;;;;;;;5.07;2.87;;;;;;;6.99;95.54;99323.38;5003688;28;20207;-82
2023/03/26 03:47:38;;;;;;;4.90;2.57;;;;;;;7.11;95.26;99336.06;5003307;28;20204;-82
2023/03/26 03:50:06;;;;;;;3.77;2.27;;;;;;;7.18;94.29;99352.38;5003910;28;20207;-84
2023/03/26 03:52:32;;;;;;;4.17;2.57;;;;;;;7.22;94.03;99366.97;5003182;28;20255;-83
2023/03/26 03:55:00;;;;;;;3.37;2.40;;;;;;;7.03;93.81;99372.56;5003520;28;20204;-82
2023/03/26 03:57:27;;;;;;;6.73;3.30;;;;;;;7.05;94.11;99369.94;5002829;28;20295;-82
2023/03/26 03:59:56;;;;;;;4.10;2.87;;;;;;;6.93;94.86;99363.25;5003032;28;20207;-81
2023/03/26 04:02:29;;;;;;;4.90;3.70;;;;;;;7.04;94.48;99357.88;5004067;28;20231;-82
2023/03/26 04:04:56;;;;;;;8.47;3.13;;;;;;;7.06;94.28;99363.88;5003642;28;20238;-82
2023/03/26 04:07:23;;;;;;;6.47;3.47;;;;;;;7.13;93.83;99363.66;5003912;28;20203;-83
2023/03/26 04:09:49;;;;;;;3.03;2.70;;;;;;;7.22;93.36;99373.00;5003461;28;20207;-81
2023/03/26 04:12:17;;;;;;;8.60;3.27;;;;;;;7.33;93.10;99388.34;5001820;28;20239;-83
2023/03/26 04:14:43;;;;;;;6.53;3.40;;;;;;;7.14;93.57;99396.53;5002870;28;20199;-82
2023/03/26 04:17:12;;;;;;;4.90;2.93;;;;;;;7.26;93.44;99386.78;5002778;28;20208;-82
2023/03/26 04:19:38;;;;;;;4.00;3.20;;;;;;;7.16;93.93;99393.91;5002102;28;20232;-83
2023/03/26 04:22:05;;;;;;;4.57;3.23;;;;;;;7.17;93.83;99393.00;5002344;28;20622;-81
2023/03/26 04:24:32;;;;;;;4.70;2.83;;;;;;;7.34;93.26;99384.88;5002932;28;20593;-82
2023/03/26 04:27:00;;;;;;;5.77;3.30;;;;;;;7.36;92.86;99391.72;5002992;28;20293;-83
2023/03/26 04:29:31;;;;;;;6.83;3.83;;;;;;;7.31;93.34;99385.78;5002159;28;20207;-83
2023/03/26 04:32:05;;;;;;;5.43;4.00;;;;;;;7.25;94.91;99377.28;5003664;28;20243;-83
2023/03/26 04:34:33;;;;;;;4.93;4.43;;;;;;;7.16;95.14;99342.84;5002516;28;20203;-81
2023/03/26 04:37:00;;;;;;;6.13;4.33;;;;;;;7.23;96.34;99322.78;5003113;28;20219;-83
2023/03/26 04:39:28;;;;;;;9.50;4.97;;;;;;;7.32;96.56;99303.56;5003087;28;20235;-83
2023/03/26 04:41:54;;;;;;;3.07;2.80;;;;;;;7.42;97.00;99297.25;5003441;28;20235;-83
2023/03/26 04:44:21;;;;;;;3.67;3.00;;;;;;;7.53;97.30;99279.69;5002732;28;20204;-82
2023/03/26 04:46:49;;;;;;;6.90;3.93;;;;;;;7.59;96.51;99285.59;5004054;28;20243;-83
2023/03/26 04:49:15;;;;;;;7.70;4.63;;;;;;;7.53;95.58;99302.19;5003563;28;20221;-83
2023/03/26 04:51:43;;;;;;;7.57;5.33;;;;;;;7.42;95.63;99323.22;5002978;28;20597;-82
2023/03/26 04:54:11;;;;;;;4.53;3.87;;;;;;;7.53;95.28;99325.56;5003249;28;20209;-83
2023/03/26 04:56:42;;;;;;;4.93;4.50;;;;;;;7.55;94.61;99322.03;5003485;28;20215;-83
2023/03/26 04:59:13;;;;;;;8.80;4.57;;;;;;;7.44;94.43;99339.63;5003375;28;20237;-83
2023/03/26 05:01:40;;;;;;;7.37;5.13;;;;;;;7.16;94.62;99335.06;5002402;28;20225;-83
2023/03/26 05:04:08;;;;;;;8.47;5.17;;;;;;;7.32;94.61;99332.97;5002551;28;20217;-82
2023/03/26 05:06:36;;;;;;;7.27;5.03;;;;;;;7.31;94.54;99325.22;5003311;28;20207;-81
2023/03/26 05:09:03;;;;;;;7.70;5.60;;;;;;;7.33;94.61;99323.44;5002597;28;20215;-83
2023/03/26 05:11:30;;;;;;;7.80;5.97;;;;;;;7.15;94.73;99330.78;4968432;28;1006062;-83
2023/03/26 05:13:56;;;;;;;7.07;4.87;;;;;;;7.33;94.99;99326.03;5003315;28;20208;-82
2023/03/26 05:16:23;;;;;;;6.13;5.23;;;;;;;7.22;94.81;99315.06;5003578;28;20211;-83
2023/03/26 05:18:50;;;;;;;5.77;4.97;;;;;;;7.08;95.37;99308.44;5003274;28;20234;-83
2023/03/26 05:21:18;;;;;;;7.67;4.70;;;;;;;6.88;96.81;99295.09;5003737;28;20239;-82
2023/03/26 05:23:44;;;;;;;6.63;5.33;;;;;;;6.83;97.11;99271.81;5003141;28;20203;-81
2023/03/26 05:26:11;;;;;;;7.00;5.73;;;;;;;6.90;97.51;99262.19;5004562;28;20265;-82
2023/03/26 05:28:37;;;;;;;7.47;5.57;;;;;;;7.03;97.36;99247.16;5004040;28;20222;-83
2023/03/26 05:31:04;;;;;;;6.50;5.47;;;;;;;6.95;97.55;99252.53;5002621;28;20224;-82
2023/03/26 05:33:30;;;;;;;7.27;5.30;;;;;;;7.01;97.53;99257.56;4999998;28;20241;-83
2023/03/26 05:36:00;;;;;;;19.97;7.03;;;;;;;7.06;97.80;99250.56;4999391;28;20219;-82
2023/03/26 05:38:29;;;;;;;7.47;5.53;;;;;;;7.03;97.30;99248.00;5004317;28;20310;-84
2023/03/26 05:40:59;;;;;;;7.87;5.67;;;;;;;7.20;97.50;99250.22;5018345;28;20227;-83
2023/03/26 05:43:26;;;;;;;10.03;5.87;;;;;;;7.25;97.02;99261.31;5013127;28;20200;-82
2023/03/26 05:45:52;;;;;;;8.07;5.60;;;;;;;7.30;96.68;99259.47;5002840;28;20234;-82
2023/03/26 05:48:19;;;;;;;7.30;5.23;;;;;;;7.45;96.82;99265.19;4997439;28;20204;-82
2023/03/26 05:50:48;;;;;;;8.70;5.23;;;;;;;7.44;96.38;99277.31;4998285;28;20205;-81
2023/03/26 05:53:15;;;;;;;10.60;5.93;;;;;;;7.43;96.98;99275.59;4997562;28;20209;-81
2023/03/26 05:55:44;;;;;;;7.40;5.13;;;;;;;7.50;96.22;99284.94;4997256;28;20214;-81
2023/03/26 05:58:11;;;;;;;8.43;5.37;;;;;;;7.59;95.75;99281.28;4996740;28;20236;-82
2023/03/26 06:00:37;;;;;;;7.17;5.00;;;;;;;7.71;95.43;99277.47;4997122;28;20215;-80
2023/03/26 06:03:04;;;;;;;6.07;4.97;;;;;;;7.66;94.86;99298.38;4996965;28;20250;-82
2023/03/26 06:05:33;;;;;;;7.30;4.70;;;;;;;7.65;94.93;99308.81;4997166;28;20310;-80
2023/03/26 06:07:59;;;;;;;7.70;5.43;;;;;;;7.70;93.91;99320.78;4996249;28;20258;-81
2023/03/26 06:10:26;;;;;;;5.57;5.07;;;;;;;7.71;93.78;99326.84;4997985;28;20247;-81
2023/03/26 06:12:53;;;;;;;5.50;4.97;;;;;;;7.37;94.63;99327.66;4997606;28;20772;-81
2023/03/26 06:15:20;;;;;;;9.07;5.77;;;;;;;7.34;95.08;99312.19;4996804;28;20678;-81
2023/03/26 06:17:46;;;;;;;6.87;5.80;;;;;;;7.45;95.12;99292.00;4997481;28;20208;-82
2023/03/26 06:20:14;;;;;;;9.13;6.27;;;;;;;7.41;95.65;99286.91;5000116;28;20242;-82
2023/03/26 06:22:40;;;;;;;12.07;5.97;;;;;;;7.50;95.82;99274.56;5004682;28;20232;-79
2023/03/26 06:25:07;;;;;;;7.07;5.07;;;;;;;7.45;95.76;99281.63;5006142;28;20187;-79
2023/03/26 06:27:34;;;;;;;7.17;5.47;;;;;;;7.35;96.69;99272.34;5006680;28;20219;-80
2023/03/26 06:30:01;;;;;;;11.80;5.63;;;;;;;7.41;97.51;99251.41;5006689;28;20203;-80
2023/03/26 06:32:28;;;;;;;8.57;5.53;;;;;;;7.31;97.25;99243.03;5007007;28;20228;-82
2023/03/26 06:34:54;;;;;;;9.30;5.63;;;;;;;7.39;97.63;99232.44;5006350;28;20211;-79
2023/03/26 06:37:21;;;;;;;8.77;5.80;;;;;;;7.42;97.08;99232.34;5006175;28;20215;-79
2023/03/26 06:39:47;;;;;;;10.07;6.63;;;;;;;7.43;97.67;99220.22;5006982;28;20223;-79
2023/03/26 06:42:13;;;;;;;9.67;5.07;;;;;;;7.41;97.78;99228.03;5007189;28;20228;-78
2023/03/26 06:44:40;;;;;;;7.27;5.93;;;;;;;7.50;96.92;99226.97;5006197;28;20237;-79
2023/03/26 06:47:07;;;;;;;7.50;5.67;;;;;;;7.61;97.27;99237.94;5005695;28;20214;-80
2023/03/26 06:49:34;;;;;;;8.83;5.00;;;;;;;7.60;97.13;99236.22;5006646;28;20199;-81
2023/03/26 06:52:01;;;;;;;7.23;6.27;;;;;;;7.73;97.27;99240.22;5005420;28;20266;-78
2023/03/26 06:54:28;;;;;;;6.97;5.20;;;;;;;7.83;95.97;99240.81;5005244;28;20204;-82
2023/03/26 06:56:54;;;;;;;7.67;5.13;;;;;;;7.72;94.21;99274.00;4999078;28;20218;-83
2023/03/26 06:59:21;;;;;;;8.33;5.30;;;;;;;7.53;95.31;99279.69;4999215;28;20241;-82
2023/03/26 07:01:47;;;;;;;8.20;5.57;;;;;;;7.42;96.47;99262.66;4998763;28;20231;-83
2023/03/26 07:04:15;;;;;;;10.43;5.20;;;;;;;7.47;96.47;99256.47;5001020;28;20205;-83
2023/03/26 07:06:41;;;;;;;5.37;4.03;;;;;;;7.43;95.66;99262.59;5004569;28;20207;-83
2023/03/26 07:09:07;;;;;;;5.83;3.80;;;;;;;7.58;93.94;99278.72;5006325;28;20565;-83
2023/03/26 07:11:34;;;;;;;7.53;4.53;;;;;;;7.51;93.46;99302.25;5006230;28;20246;-84
2023/03/26 07:14:00;;;;;;;5.20;3.53;;;;;;;7.61;93.00;99307.19;5005659;28;20217;-82
2023/03/26 07:16:27;;;;;;;5.73;3.87;;;;;;;7.50;91.72;99344.66;5006187;28;20578;-82
2023/03/26 07:18:54;;;;;;;3.03;2.70;;;;;;;7.44;90.89;99363.00;5006321;28;20227;-83
2023/03/26 07:21:22;;;;;;;4.37;3.50;;;;;;;7.62;91.07;99368.63;5006685;28;20231;-82
2023/03/26 07:23:49;;;;;;;4.20;2.97;;;;;;;7.56;89.80;99400.78;5005375;28;20201;-83
2023/03/26 07:26:26;;;;;;;9.40;3.30;;;;;;;7.49;91.20;99384.50;5007856;28;20246;-84
2023/03/26 07:28:59;;;;;;;7.90;3.70;;;;;;;7.45;91.84;99372.50;5008019;28;20230;-82
2023/03/26 07:31:34;;;;;;;5.53;2.93;;;;;;;7.44;91.72;99367.34;5008810;28;20715;-84
2023/03/26 07:34:11;;;;;;;4.47;2.80;;;;;;;7.48;91.42;99364.63;5008626;28;20205;-81
2023/03/26 07:36:47;;;;;;;4.03;2.83;;;;;;;7.58;91.37;99367.00;5009417;28;20203;-83
2023/03/26 07:39:26;;;;;;;3.93;3.07;;;;;;;7.79;91.04;99369.09;5008319;28;20704;-83
2023/03/26 07:42:04;;;;;;;4.67;2.80;;;;;;;7.93;90.27;99374.78;5009277;28;20315;-82
2023/03/26 07:44:47;;;;;;;4.83;2.73;;;;;;;7.81;89.45;99397.59;5009671;28;20269;-84
2023/03/26 07:47:24;;;;;;;3.63;2.50;;;;;;;7.93;90.19;99395.56;5009614;28;20682;-83
2023/03/26 07:49:53;;;;;;;5.67;2.43;;;;;;;8.03;88.56;99410.94;5007920;28;20262;-83
2023/03/26 07:52:21;;;;;;;5.57;3.30;;;;;;;8.04;87.71;99439.47;5009124;28;20288;-85
2023/03/26 07:54:48;;;;;;;5.47;3.33;;;;;;;8.10;86.92;99444.50;5008774;28;20216;-82
2023/03/26 07:57:25;;;;;;;3.87;2.97;;;;;;;8.24;86.38;99461.50;5009794;28;20218;-83
2023/03/26 07:59:57;;;;;;;6.37;2.20;;;;;;;8.02;84.01;99513.16;5008968;28;20236;-83
2023/03/26 08:02:52;;;;;;;2.47;1.60;;;;;;;8.20;84.33;99538.72;5008666;28;20734;-84
2023/03/26 08:05:26;;;;;;;6.87;2.43;;;;;;;8.03;83.91;99561.66;5007370;28;20211;-84
2023/03/26 08:08:07;;;;;;;4.63;1.60;;;;;;;8.12;84.87;99545.84;5008133;28;20277;-84
2023/03/26 08:10:41;;;;;;;3.10;2.00;;;;;;;8.35;85.22;99537.50;5006422;28;20251;-83
2023/03/26 08:13:20;;;;;;;4.53;2.80;;;;;;;8.52;84.33;99529.31;5004786;28;20204;-83
2023/03/26 08:15:57;;;;;;;2.53;1.97;;;;;;;8.65;82.91;99559.31;5004179;28;20208;-81
2023/03/26 08:18:40;;;;;;;3.07;1.80;;;;;;;8.75;83.41;99576.41;5001472;28;20736;-81
2023/03/26 08:21:12;;;;;;;3.53;2.07;;;;;;;8.71;82.78;99586.94;5000155;28;20715;-82
2023/03/26 08:24:00;;;;;;;3.97;1.90;;;;;;;8.77;82.72;99601.53;5000845;28;20210;-81
2023/03/26 08:26:34;;;;;;;3.87;2.20;;;;;;;8.87;82.45;99600.41;5000940;28;20235;-81
2023/03/26 08:29:10;;;;;;;5.17;2.90;;;;;;;8.72;81.86;99625.94;5000861;28;20216;-82
2023/03/26 08:31:39;;;;;;;6.90;3.90;;;;;;;8.14;81.88;99637.66;5000407;28;20251;-81
2023/03/26 08:34:06;;;;;;;4.30;2.73;;;;;;;8.24;83.35;99601.91;5001195;28;20673;-84
2023/03/26 08:36:32;;;;;;;6.83;2.37;;;;;;;8.44;84.07;99581.50;5001870;28;20262;-83
2023/03/26 08:39:00;;;;;;;5.87;2.03;;;;;;;8.66;84.08;99578.38;5001873;28;20286;-82
2023/03/26 08:41:45;;;;;;;5.77;2.10;;;;;;;8.77;81.69;99588.53;5004211;28;20298;-82
2023/03/26 08:44:47;;;;;;;3.47;2.33;;;;;;;8.75;81.17;99622.41;5001251;28;20214;-83
2023/03/26 08:47:47;;;;;;;10.93;3.33;;;;;;;8.92;80.99;99625.44;5002502;28;20234;-82
2023/03/26 08:50:25;;;;;;;3.80;1.97;;;;;;;8.89;81.21;99622.91;4997583;28;20210;-83
2023/03/26 08:53:22;;;;;;;3.90;1.87;;;;;;;9.07;83.67;99581.69;4997123;28;20272;-83
2023/03/26 08:55:53;;;;;;;3.70;2.27;;;;;;;9.06;81.72;99579.97;4996850;28;20262;-82
2023/03/26 08:58:46;;;;;;;4.37;2.80;;;;;;;9.13;80.90;99597.97;4996809;28;20756;-82
2023/03/26 09:01:50;;;;;;;5.17;2.37;;;;;;;9.08;79.26;99638.06;4996898;28;20644;-81
2023/03/26 09:04:42;;;;;;;3.53;1.93;;;;;;;9.08;80.19;99648.47;4996155;28;20283;-84
2023/03/26 09:07:38;;;;;;;5.10;2.13;;;;;;;9.05;80.41;99649.38;4994968;28;20204;-83
2023/03/26 09:10:42;;;;;;;5.03;1.90;;;;;;;9.41;80.18;99645.88;4993480;28;20206;-81
2023/03/26 09:13:38;;;;;;;5.23;2.93;;;;;;;9.41;79.87;99657.13;4967912;28;20287;-83
2023/03/26 09:16:31;;;;;;;4.97;2.13;;;;;;;9.16;77.96;99662.16;4989837;28;20204;-83
2023/03/26 09:19:43;;;;;;;3.80;3.47;;;;;;;9.26;79.70;99666.22;4997328;28;20622;-82
2023/03/26 09:22:47;;;;;;;5.43;2.60;;;;;;;9.17;78.40;99670.81;4988957;28;20225;-83
2023/03/26 09:25:40;;;;;;;9.00;2.90;;;;;;;9.08;79.81;99684.94;4980556;28;20246;-82
2023/03/26 09:28:41;;;;;;;4.00;3.07;;;;;;;9.30;79.51;99631.38;4997809;28;20207;-80
2023/03/26 09:31:31;;;;;;;8.27;7.33;;;;;;;9.56;79.18;99649.81;4994390;28;20240;-85
2023/03/26 09:34:13;;;;;;;4.73;4.17;;;;;;;9.72;77.87;99675.41;5000130;28;20229;-82
2023/03/26 09:37:15;;;;;;;5.53;4.20;;;;;;;9.69;76.51;99701.56;4995763;28;20208;-79
2023/03/26 09:39:51;;;;;;;5.60;3.80;;;;;;;9.78;77.32;99717.84;4995289;28;20238;-79
2023/03/26 09:42:29;;;;;;;4.07;2.93;;;;;;;9.82;77.11;99712.50;4996629;28;20582;-79
2023/03/26 09:45:31;;;;;;;5.93;3.00;;;;;;;9.92;76.42;99737.41;4998329;28;20192;-79
2023/03/26 09:48:19;;;;;;;5.37;2.70;;;;;;;9.88;75.96;99753.19;4995411;28;20200;-81
2023/03/26 09:51:11;;;;;;;4.23;3.20;;;;;;;9.47;76.84;99750.75;4992204;28;20672;-81
2023/03/26 09:53:53;;;;;;;4.43;2.87;;;;;;;9.26;78.56;99726.13;4993752;28;20207;-81
2023/03/26 09:56:32;;;;;;;5.83;3.20;;;;;;;9.34;77.83;99705.94;4993820;28;20211;-80
2023/03/26 09:59:27;;;;;;;6.13;2.70;;;;;;;9.52;77.95;99688.97;4995003;28;20259;-81
2023/03/26 10:02:04;;;;;;;4.27;2.47;;;;;;;9.79;77.96;99678.72;4995181;28;20216;-80
2023/03/26 10:04:44;;;;;;;5.83;3.20;;;;;;;9.85;76.29;99681.13;4992418;28;20204;-81
2023/03/26 10:07:30;;;;;;;7.33;3.50;;;;;;;10.04;76.88;99684.06;4994394;28;20217;-81
2023/03/26 10:10:04;;;;;;;4.93;3.57;;;;;;;10.23;76.89;99689.59;4993769;28;20270;-83
2023/03/26 10:12:36;;;;;;;5.07;3.10;;;;;;;10.43;77.30;99678.59;4993579;28;20233;-82
2023/03/26 10:15:16;;;;;;;5.17;3.40;;;;;;;10.51;74.39;99699.25;4994687;28;20578;-81
2023/03/26 10:17:56;;;;;;;6.13;3.20;;;;;;;10.70;74.97;99736.94;4996726;28;20215;-82
2023/03/26 10:20:55;;;;;;;3.50;2.97;;;;;;;10.80;73.18;99750.56;5005529;28;20745;-82
2023/03/26 10:23:42;;;;;;;3.80;2.83;;;;;;;10.95;72.72;99797.97;5002279;28;20281;-83
2023/03/26 10:26:24;;;;;;;4.23;3.03;;;;;;;11.07;71.83;99816.72;4993553;28;20274;-83
2023/03/26 10:29:14;;;;;;;3.63;2.90;;;;;;;11.15;72.52;99836.53;5008592;28;20203;-84
2023/03/26 10:31:46;;;;;;;4.93;3.10;;;;;;;11.26;71.18;99835.28;4998101;28;20226;-82
2023/03/26 10:34:38;;;;;;;4.13;2.83;;;;;;;11.28;70.44;99877.06;5001513;28;20202;-85
2023/03/26 10:37:15;;;;;;;4.23;2.70;;;;;;;11.33;70.38;99894.28;4991827;28;20669;-81
2023/03/26 10:40:19;;;;;;;4.47;3.13;;;;;;;11.45;69.72;99906.09;4994892;28;20103;-83
2023/03/26 10:43:14;;;;;;;3.17;2.77;;;;;;;11.59;69.57;99907.44;4925470;29;20222;-84
2023/03/26 10:45:59;;;;;;;4.17;3.10;;;;;;;11.78;69.35;99907.72;4995205;28;20257;-83
2023/03/26 10:48:54;;;;;;;4.13;2.80;;;;;;;11.80;68.82;99929.44;4992515;28;20235;-83
2023/03/26 10:51:31;;;;;;;3.70;2.70;;;;;;;11.41;68.59;99964.59;4989314;28;20304;-83
2023/03/26 10:54:01;;;;;;;4.53;3.50;;;;;;;11.59;69.87;99952.72;4994842;28;20702;-82
2023/03/26 10:56:32;;;;;;;4.60;2.87;;;;;;;11.77;68.61;99932.97;4995590;28;20201;-82
2023/03/26 10:59:05;;;;;;;3.67;3.17;;;;;;;11.75;68.74;99947.88;4996667;28;20227;-83
2023/03/26 11:01:41;;;;;;;4.37;2.80;;;;;;;11.37;68.97;99962.13;4994268;28;20223;-83
2023/03/26 11:04:21;;;;;;;3.20;2.77;;;;;;;11.41;69.33;99935.84;4993025;28;20201;-82
2023/03/26 11:06:58;;;;;;;3.87;3.47;;;;;;;11.44;68.28;99943.59;4994863;28;20578;-81
2023/03/26 11:09:34;;;;;;;9.73;4.10;;;;;;;11.28;66.85;99965.88;4993824;28;20201;-81
2023/03/26 11:12:07;;;;;;;4.30;3.70;;;;;;;11.49;67.96;99965.22;5002132;28;20248;-82
2023/03/26 11:14:44;;;;;;;4.50;3.67;;;;;;;11.68;68.48;99948.97;5020319;28;20208;-83
2023/03/26 11:17:22;;;;;;;4.20;3.07;;;;;;;11.93;68.49;99949.06;5018598;28;20215;-81
2023/03/26 11:19:53;;;;;;;4.70;3.13;;;;;;;12.16;68.34;99924.78;5017204;28;20223;-81
2023/03/26 11:22:34;;;;;;;4.37;2.90;;;;;;;12.32;66.87;99952.13;4998712;28;20598;-82
2023/03/26 11:25:17;;;;;;;3.90;2.87;;;;;;;12.39;66.56;99965.88;4999306;28;20202;-82
2023/03/26 11:27:56;;;;;;;6.03;2.87;;;;;;;12.54;65.98;99985.44;4983893;28;20205;-83
2023/03/26 11:30:33;;;;;;;2.87;2.30;;;;;;;12.74;64.52;100003.06;5000800;28;20206;-83
2023/03/26 11:33:04;;;;;;;5.40;2.93;;;;;;;12.94;63.77;100036.41;4994126;28;20212;-81
2023/03/26 11:35:33;;;;;;;3.43;2.40;;;;;;;13.03;62.56;100062.31;4996107;28;20206;-81
2023/03/26 11:38:05;;;;;;;4.87;2.70;;;;;;;13.09;62.43;100096.16;4994742;28;20202;-81
2023/03/26 11:40:35;;;;;;;3.47;2.83;;;;;;;13.19;61.22;100103.69;4994980;28;20232;-79
2023/03/26 11:43:04;;;;;;;4.10;2.63;;;;;;;13.18;60.93;100136.03;4996226;28;20219;-81
2023/03/26 11:45:35;;;;;;;4.43;2.40;;;;;;;13.09;61.04;100152.94;4995303;28;20497;-81
2023/03/26 11:48:08;;;;;;;2.70;2.33;;;;;;;13.02;62.50;100154.94;4997258;28;20390;-80
2023/03/26 11:50:39;;;;;;;4.00;3.00;;;;;;;12.93;62.81;100134.28;4996905;28;20273;-81
2023/03/26 11:53:13;;;;;;;9.43;3.27;;;;;;;12.75;63.74;100127.88;4999551;28;20220;-80
2023/03/26 11:55:44;;;;;;;4.17;2.57;;;;;;;12.66;65.61;100087.13;5000340;28;20232;-80
2023/03/26 11:58:23;;;;;;;3.97;2.90;;;;;;;12.58;64.58;100047.25;4999488;28;20216;-82
2023/03/26 12:00:51;;;;;;;4.37;2.63;;;;;;;12.47;64.59;100059.84;4999708;28;20230;-81
2023/03/26 12:03:19;;;;;;;4.20;2.90;;;;;;;12.31;65.23;100039.41;4999680;28;20218;-80
2023/03/26 12:05:48;;;;;;;5.03;3.07;;;;;;;12.12;65.38;100022.59;5008943;28;20208;-81